PWSweather.com
Personal Weather Stations
Station Observations
N3SME
Betz Creek, Wilmington Island, Savannah, GA 31410

Betz Creek, Wilmington IslandSavannah, GA 31410

Lat: 32.023021, Lon: -80.959452

Elevation: 15

Station Type: Ambient

High Low Average
Temperature 57.5°F14.2°F 42.7°F5.9°F 49.2°F9.6°F
Dew Point 39.2°F4.0°F 30.6°F-0.8°F 34.9°F1.6°F
Winds 26.2 mph W42.2 mph W Calm Calm 5.8 mph 9.3 mph
Wind Gusts 55.9 mph90.0 mph 3.6 mph5.8 mph 23.8 mph38.3 mph
Humidity 76% 39% 60%
Pressure 30.25 in1024.40 in 30.06 in1017.90 in -
Precipitation 0.00 in0.00 in - -
Hour Temp Dew Point Humidity Winds Wind Gusts Pressure Precip Precip Rate Daily Precip Total
12:05 AM 46.5°F8.1°C 39.2°F4.0°C 76% 3.6 mph SW5.8 kmh SW 14.1 mph22.7 kmh 30.09 in1019.0 mb 0.00 in0.0 mm 0.00 in/hr0.0 mm/hr 0.00 in0.0 mm
12:20 AM 46.3°F7.9°C 38.7°F3.7°C 75% 1.8 mph WSW2.9 kmh WSW 10.5 mph16.9 kmh 30.09 in1019.0 mb 0.00 in0.0 mm 0.00 in/hr0.0 mm/hr 0.00 in0.0 mm
12:35 AM 46.3°F7.9°C 38.7°F3.7°C 75% Calm Calm 10.5 mph16.9 kmh 30.09 in1019.0 mb 0.00 in0.0 mm 0.00 in/hr0.0 mm/hr 0.00 in0.0 mm
12:50 AM 45.9°F7.7°C 38.4°F3.6°C 75% 3.6 mph SW5.8 kmh SW 10.5 mph16.9 kmh 30.08 in1018.6 mb 0.00 in0.0 mm 0.00 in/hr0.0 mm/hr 0.00 in0.0 mm
01:05 AM 45.9°F7.7°C 38.4°F3.6°C 75% 1.8 mph WSW2.9 kmh WSW 12.3 mph19.8 kmh 30.08 in1018.6 mb 0.00 in0.0 mm 0.00 in/hr0.0 mm/hr 0.00 in0.0 mm
01:20 AM 46.1°F7.8°C 38.2°F3.4°C 74% 3.6 mph WSW5.8 kmh WSW 19.2 mph30.9 kmh 30.08 in1018.6 mb 0.00 in0.0 mm 0.00 in/hr0.0 mm/hr 0.00 in0.0 mm
01:35 AM 45.6°F7.6°C 38.0°F3.3°C 75% 5.1 mph SW8.2 kmh SW 12.3 mph19.8 kmh 30.09 in1019.0 mb 0.00 in0.0 mm 0.00 in/hr0.0 mm/hr 0.00 in0.0 mm
01:50 AM 45.9°F7.7°C 38.4°F3.6°C 75% 5.1 mph W8.2 kmh W 14.1 mph22.7 kmh 30.08 in1018.6 mb 0.00 in0.0 mm 0.00 in/hr0.0 mm/hr 0.00 in0.0 mm
02:05 AM 45.9°F7.7°C 38.4°F3.6°C 75% 1.8 mph WSW2.9 kmh WSW 14.1 mph22.7 kmh 30.08 in1018.6 mb 0.00 in0.0 mm 0.00 in/hr0.0 mm/hr 0.00 in0.0 mm
02:20 AM 45.8°F7.7°C 38.2°F3.4°C 75% 1.8 mph WSW2.9 kmh WSW 10.5 mph16.9 kmh 30.08 in1018.6 mb 0.00 in0.0 mm 0.00 in/hr0.0 mm/hr 0.00 in0.0 mm
02:35 AM 45.8°F7.7°C 37.9°F3.3°C 74% Calm Calm 10.5 mph16.9 kmh 30.07 in1018.3 mb 0.00 in0.0 mm 0.00 in/hr0.0 mm/hr 0.00 in0.0 mm
02:50 AM 45.9°F7.7°C 37.7°F3.2°C 73% 1.8 mph SSW2.9 kmh SSW 8.7 mph14.0 kmh 30.07 in1018.3 mb 0.00 in0.0 mm 0.00 in/hr0.0 mm/hr 0.00 in0.0 mm
03:05 AM 45.6°F7.6°C 37.7°F3.2°C 74% Calm Calm 12.3 mph19.8 kmh 30.07 in1018.3 mb 0.00 in0.0 mm 0.00 in/hr0.0 mm/hr 0.00 in0.0 mm
03:20 AM 45.4°F7.4°C 38.2°F3.4°C 76% 1.8 mph SW2.9 kmh SW 6.9 mph11.1 kmh 30.06 in1017.9 mb 0.00 in0.0 mm 0.00 in/hr0.0 mm/hr 0.00 in0.0 mm
03:35 AM 45.6°F7.6°C 38.0°F3.3°C 75% 1.8 mph SW2.9 kmh SW 12.3 mph19.8 kmh 30.06 in1017.9 mb 0.00 in0.0 mm 0.00 in/hr0.0 mm/hr 0.00 in0.0 mm
03:50 AM 45.4°F7.4°C 38.2°F3.4°C 76% 3.6 mph WSW5.8 kmh WSW 10.5 mph16.9 kmh 30.06 in1017.9 mb 0.00 in0.0 mm 0.00 in/hr0.0 mm/hr 0.00 in0.0 mm
04:05 AM 45.6°F7.6°C 38.0°F3.3°C 75% 3.6 mph WSW5.8 kmh WSW 19.2 mph30.9 kmh 30.06 in1017.9 mb 0.00 in0.0 mm 0.00 in/hr0.0 mm/hr 0.00 in0.0 mm
04:20 AM 46.3°F7.9°C 38.4°F3.6°C 74% 3.6 mph WSW5.8 kmh WSW 14.1 mph22.7 kmh 30.06 in1017.9 mb 0.00 in0.0 mm 0.00 in/hr0.0 mm/hr 0.00 in0.0 mm
04:35 AM 46.1°F7.8°C 37.5°F3.1°C 72% 6.9 mph WSW11.1 kmh WSW 17.4 mph28.0 kmh 30.06 in1017.9 mb 0.00 in0.0 mm 0.00 in/hr0.0 mm/hr 0.00 in0.0 mm
04:50 AM 46.7°F8.2°C 38.0°F3.3°C 72% 5.1 mph W8.2 kmh W 17.4 mph28.0 kmh 30.06 in1017.9 mb 0.00 in0.0 mm 0.00 in/hr0.0 mm/hr 0.00 in0.0 mm
05:05 AM 46.7°F8.2°C 38.0°F3.3°C 72% 5.1 mph WSW8.2 kmh WSW 19.2 mph30.9 kmh 30.07 in1018.3 mb 0.00 in0.0 mm 0.00 in/hr0.0 mm/hr 0.00 in0.0 mm
05:20 AM 47.2°F8.4°C 37.8°F3.2°C 70% 6.9 mph W11.1 kmh W 21.0 mph33.8 kmh 30.07 in1018.3 mb 0.00 in0.0 mm 0.00 in/hr0.0 mm/hr 0.00 in0.0 mm
05:35 AM 47.4°F8.6°C 37.6°F3.1°C 69% 6.9 mph W11.1 kmh W 31.5 mph50.7 kmh 30.07 in1018.3 mb 0.00 in0.0 mm 0.00 in/hr0.0 mm/hr 0.00 in0.0 mm
05:50 AM 47.6°F8.7°C 38.1°F3.4°C 70% 5.1 mph W8.2 kmh W 24.6 mph39.6 kmh 30.08 in1018.6 mb 0.00 in0.0 mm 0.00 in/hr0.0 mm/hr 0.00 in0.0 mm
06:05 AM 47.9°F8.8°C 38.8°F3.8°C 71% 6.9 mph W11.1 kmh W 26.2 mph42.2 kmh 30.08 in1018.6 mb 0.00 in0.0 mm 0.00 in/hr0.0 mm/hr 0.00 in0.0 mm
06:20 AM 47.6°F8.7°C 38.5°F3.6°C 71% 5.1 mph W8.2 kmh W 26.2 mph42.2 kmh 30.08 in1018.6 mb 0.00 in0.0 mm 0.00 in/hr0.0 mm/hr 0.00 in0.0 mm
06:35 AM 47.7°F8.7°C 38.7°F3.7°C 71% 8.7 mph WSW14.0 kmh WSW 26.2 mph42.2 kmh 30.09 in1019.0 mb 0.00 in0.0 mm 0.00 in/hr0.0 mm/hr 0.00 in0.0 mm
06:50 AM 46.7°F8.2°C 38.0°F3.3°C 72% 5.1 mph W8.2 kmh W 22.8 mph36.7 kmh 30.09 in1019.0 mb 0.00 in0.0 mm 0.00 in/hr0.0 mm/hr 0.00 in0.0 mm
07:05 AM 46.8°F8.2°C 38.5°F3.6°C 73% 6.9 mph W11.1 kmh W 28.0 mph45.1 kmh 30.10 in1019.3 mb 0.00 in0.0 mm 0.00 in/hr0.0 mm/hr 0.00 in0.0 mm
07:20 AM 46.7°F8.2°C 38.4°F3.6°C 73% 15.7 mph WSW25.3 kmh WSW 24.6 mph39.6 kmh 30.11 in1019.6 mb 0.00 in0.0 mm 0.00 in/hr0.0 mm/hr 0.00 in0.0 mm
07:35 AM 46.5°F8.1°C 38.2°F3.4°C 73% 8.7 mph W14.0 kmh W 28.0 mph45.1 kmh 30.11 in1019.6 mb 0.00 in0.0 mm 0.00 in/hr0.0 mm/hr 0.00 in0.0 mm
07:50 AM 46.8°F8.2°C 38.2°F3.4°C 72% 6.9 mph W11.1 kmh W 21.0 mph33.8 kmh 30.11 in1019.6 mb 0.00 in0.0 mm 0.00 in/hr0.0 mm/hr 0.00 in0.0 mm
08:05 AM 46.7°F8.2°C 37.6°F3.1°C 71% 8.7 mph WNW14.0 kmh WNW 24.6 mph39.6 kmh 30.12 in1020.0 mb 0.00 in0.0 mm 0.00 in/hr0.0 mm/hr 0.00 in0.0 mm
08:20 AM 47.2°F8.4°C 37.4°F3.0°C 69% 5.1 mph W8.2 kmh W 28.0 mph45.1 kmh 30.12 in1020.0 mb 0.00 in0.0 mm 0.00 in/hr0.0 mm/hr 0.00 in0.0 mm
08:35 AM 48.1°F8.9°C 37.5°F3.1°C 67% 6.9 mph WSW11.1 kmh WSW 24.6 mph39.6 kmh 30.12 in1020.0 mb 0.00 in0.0 mm 0.00 in/hr0.0 mm/hr 0.00 in0.0 mm
08:50 AM 49.0°F9.4°C 37.1°F2.8°C 64% 6.9 mph WSW11.1 kmh WSW 21.0 mph33.8 kmh 30.12 in1020.0 mb 0.00 in0.0 mm 0.00 in/hr0.0 mm/hr 0.00 in0.0 mm
09:05 AM 49.7°F9.8°C 36.9°F2.7°C 62% 5.1 mph W8.2 kmh W 24.6 mph39.6 kmh 30.13 in1020.3 mb 0.00 in0.0 mm 0.00 in/hr0.0 mm/hr 0.00 in0.0 mm
09:20 AM 50.4°F10.2°C 35.3°F1.8°C 57% 21.0 mph NW33.8 kmh NW 40.3 mph64.9 kmh 30.13 in1020.3 mb 0.00 in0.0 mm 0.00 in/hr0.0 mm/hr 0.00 in0.0 mm
09:35 AM 51.9°F11.1°C 35.2°F1.8°C 54% 21.0 mph W33.8 kmh W 36.7 mph59.1 kmh 30.13 in1020.3 mb 0.00 in0.0 mm 0.00 in/hr0.0 mm/hr 0.00 in0.0 mm
09:50 AM 52.6°F11.4°C 34.8°F1.6°C 52% 8.7 mph WNW14.0 kmh WNW 43.8 mph70.5 kmh 30.13 in1020.3 mb 0.00 in0.0 mm 0.00 in/hr0.0 mm/hr 0.00 in0.0 mm
10:05 AM 53.1°F11.7°C 34.8°F1.6°C 51% 10.5 mph WNW16.9 kmh WNW 31.5 mph50.7 kmh 30.13 in1020.3 mb 0.00 in0.0 mm 0.00 in/hr0.0 mm/hr 0.00 in0.0 mm
10:20 AM 53.3°F11.8°C 34.4°F1.3°C 50% 12.3 mph WNW19.8 kmh WNW 29.8 mph48.0 kmh 30.12 in1020.0 mb 0.00 in0.0 mm 0.00 in/hr0.0 mm/hr 0.00 in0.0 mm
10:35 AM 53.7°F12.1°C 33.6°F0.9°C 48% 1.8 mph W2.9 kmh W 47.2 mph76.0 kmh 30.12 in1020.0 mb 0.00 in0.0 mm 0.00 in/hr0.0 mm/hr 0.00 in0.0 mm
10:50 AM 54.4°F12.4°C 32.5°F0.3°C 45% 19.2 mph W30.9 kmh W 36.7 mph59.1 kmh 30.12 in1020.0 mb 0.00 in0.0 mm 0.00 in/hr0.0 mm/hr 0.00 in0.0 mm
11:05 AM 54.2°F12.3°C 31.8°F-0.1°C 44% 8.7 mph W14.0 kmh W 29.8 mph48.0 kmh 30.12 in1020.0 mb 0.00 in0.0 mm 0.00 in/hr0.0 mm/hr 0.00 in0.0 mm
11:20 AM 54.8°F12.7°C 31.6°F-0.2°C 43% 8.7 mph NW14.0 kmh NW 31.5 mph50.7 kmh 30.11 in1019.6 mb 0.00 in0.0 mm 0.00 in/hr0.0 mm/hr 0.00 in0.0 mm
11:35 AM 55.3°F12.9°C 32.1°F0.1°C 43% 3.6 mph NW5.8 kmh NW 31.5 mph50.7 kmh 30.11 in1019.6 mb 0.00 in0.0 mm 0.00 in/hr0.0 mm/hr 0.00 in0.0 mm
11:50 AM 55.1°F12.8°C 31.9°F-0.1°C 43% 3.6 mph NW5.8 kmh NW 33.3 mph53.6 kmh 30.11 in1019.6 mb 0.00 in0.0 mm 0.00 in/hr0.0 mm/hr 0.00 in0.0 mm
12:05 PM 55.3°F12.9°C 30.8°F-0.7°C 41% 26.2 mph W42.2 kmh W 45.4 mph73.1 kmh 30.10 in1019.3 mb 0.00 in0.0 mm 0.00 in/hr0.0 mm/hr 0.00 in0.0 mm
12:20 PM 55.3°F12.9°C 31.4°F-0.3°C 42% 14.1 mph WNW22.7 kmh WNW 52.6 mph84.7 kmh 30.10 in1019.3 mb 0.00 in0.0 mm 0.00 in/hr0.0 mm/hr 0.00 in0.0 mm
12:35 PM 55.3°F12.9°C 32.7°F0.4°C 44% 8.7 mph WNW14.0 kmh WNW 38.5 mph62.0 kmh 30.10 in1019.3 mb 0.00 in0.0 mm 0.00 in/hr0.0 mm/hr 0.00 in0.0 mm
12:50 PM 55.5°F13.1°C 33.5°F0.8°C 45% 15.7 mph WNW25.3 kmh WNW 50.8 mph81.8 kmh 30.09 in1019.0 mb 0.00 in0.0 mm 0.00 in/hr0.0 mm/hr 0.00 in0.0 mm
01:05 PM 55.5°F13.1°C 32.9°F0.5°C 44% 1.8 mph NW2.9 kmh NW 55.9 mph90.0 kmh 30.09 in1019.0 mb 0.00 in0.0 mm 0.00 in/hr0.0 mm/hr 0.00 in0.0 mm
01:20 PM 56.0°F13.3°C 32.7°F0.4°C 43% 14.1 mph WNW22.7 kmh WNW 47.2 mph76.0 kmh 30.08 in1018.6 mb 0.00 in0.0 mm 0.00 in/hr0.0 mm/hr 0.00 in0.0 mm
01:35 PM 56.2°F13.4°C 32.2°F0.1°C 42% 6.9 mph WNW11.1 kmh WNW 43.8 mph70.5 kmh 30.08 in1018.6 mb 0.00 in0.0 mm 0.00 in/hr0.0 mm/hr 0.00 in0.0 mm
01:50 PM 56.9°F13.8°C 32.2°F0.1°C 41% 10.5 mph NW16.9 kmh NW 36.7 mph59.1 kmh 30.08 in1018.6 mb 0.00 in0.0 mm 0.00 in/hr0.0 mm/hr 0.00 in0.0 mm
02:05 PM 57.5°F14.2°C 32.0°F0.0°C 40% 15.7 mph NW25.3 kmh NW 35.1 mph56.5 kmh 30.07 in1018.3 mb 0.00 in0.0 mm 0.00 in/hr0.0 mm/hr 0.00 in0.0 mm
02:20 PM 57.3°F14.1°C 31.1°F-0.5°C 39% 3.6 mph NW5.8 kmh NW 45.4 mph73.1 kmh 30.07 in1018.3 mb 0.00 in0.0 mm 0.00 in/hr0.0 mm/hr 0.00 in0.0 mm
02:35 PM 56.6°F13.7°C 31.2°F-0.4°C 40% 12.3 mph NW19.8 kmh NW 42.1 mph67.8 kmh 30.08 in1018.6 mb 0.00 in0.0 mm 0.00 in/hr0.0 mm/hr 0.00 in0.0 mm
02:50 PM 56.9°F13.8°C 30.8°F-0.7°C 39% 14.1 mph WNW22.7 kmh WNW 38.5 mph62.0 kmh 30.09 in1019.0 mb 0.00 in0.0 mm 0.00 in/hr0.0 mm/hr 0.00 in0.0 mm
03:05 PM 55.8°F13.2°C 31.3°F-0.4°C 41% 8.7 mph NW14.0 kmh NW 29.8 mph48.0 kmh 30.09 in1019.0 mb 0.00 in0.0 mm 0.00 in/hr0.0 mm/hr 0.00 in0.0 mm
03:20 PM 55.1°F12.8°C 31.3°F-0.4°C 42% 6.9 mph NW11.1 kmh NW 36.7 mph59.1 kmh 30.10 in1019.3 mb 0.00 in0.0 mm 0.00 in/hr0.0 mm/hr 0.00 in0.0 mm
03:35 PM 54.9°F12.7°C 31.8°F-0.1°C 43% 5.1 mph NW8.2 kmh NW 33.3 mph53.6 kmh 30.10 in1019.3 mb 0.00 in0.0 mm 0.00 in/hr0.0 mm/hr 0.00 in0.0 mm
03:50 PM 54.6°F12.6°C 32.1°F0.1°C 44% 6.9 mph NW11.1 kmh NW 35.1 mph56.5 kmh 30.11 in1019.6 mb 0.00 in0.0 mm 0.00 in/hr0.0 mm/hr 0.00 in0.0 mm
04:05 PM 54.4°F12.4°C 31.3°F-0.4°C 43% 6.9 mph WNW11.1 kmh WNW 31.5 mph50.7 kmh 30.11 in1019.6 mb 0.00 in0.0 mm 0.00 in/hr0.0 mm/hr 0.00 in0.0 mm
04:20 PM 54.0°F12.2°C 31.0°F-0.6°C 43% 10.5 mph WNW16.9 kmh WNW 31.5 mph50.7 kmh 30.11 in1019.6 mb 0.00 in0.0 mm 0.00 in/hr0.0 mm/hr 0.00 in0.0 mm
04:35 PM 53.5°F11.9°C 31.7°F-0.2°C 45% 1.8 mph NW2.9 kmh NW 22.8 mph36.7 kmh 30.12 in1020.0 mb 0.00 in0.0 mm 0.00 in/hr0.0 mm/hr 0.00 in0.0 mm
04:50 PM 53.0°F11.7°C 31.8°F-0.1°C 46% 3.6 mph NNW5.8 kmh NNW 24.6 mph39.6 kmh 30.13 in1020.3 mb 0.00 in0.0 mm 0.00 in/hr0.0 mm/hr 0.00 in0.0 mm
05:05 PM 52.2°F11.2°C 30.6°F-0.8°C 45% 5.1 mph NW8.2 kmh NW 14.1 mph22.7 kmh 30.13 in1020.3 mb 0.00 in0.0 mm 0.00 in/hr0.0 mm/hr 0.00 in0.0 mm
05:20 PM 51.5°F10.8°C 31.7°F-0.2°C 48% Calm Calm 15.7 mph25.3 kmh 30.15 in1021.0 mb 0.00 in0.0 mm 0.00 in/hr0.0 mm/hr 0.00 in0.0 mm
05:35 PM 50.6°F10.3°C 32.5°F0.3°C 51% 1.8 mph NNW2.9 kmh NNW 15.7 mph25.3 kmh 30.15 in1021.0 mb 0.00 in0.0 mm 0.00 in/hr0.0 mm/hr 0.00 in0.0 mm
05:50 PM 50.1°F10.1°C 33.0°F0.6°C 53% 5.1 mph WNW8.2 kmh WNW 12.3 mph19.8 kmh 30.16 in1021.3 mb 0.00 in0.0 mm 0.00 in/hr0.0 mm/hr 0.00 in0.0 mm
06:05 PM 49.7°F9.8°C 33.2°F0.7°C 54% Calm Calm 12.3 mph19.8 kmh 30.17 in1021.7 mb 0.00 in0.0 mm 0.00 in/hr0.0 mm/hr 0.00 in0.0 mm
06:20 PM 49.2°F9.6°C 33.7°F0.9°C 56% Calm Calm 8.7 mph14.0 kmh 30.18 in1022.0 mb 0.00 in0.0 mm 0.00 in/hr0.0 mm/hr 0.00 in0.0 mm
06:35 PM 48.5°F9.2°C 34.4°F1.3°C 59% Calm Calm 6.9 mph11.1 kmh 30.18 in1022.0 mb 0.00 in0.0 mm 0.00 in/hr0.0 mm/hr 0.00 in0.0 mm
06:50 PM 47.9°F8.8°C 34.4°F1.3°C 60% Calm Calm 8.7 mph14.0 kmh 30.18 in1022.0 mb 0.00 in0.0 mm 0.00 in/hr0.0 mm/hr 0.00 in0.0 mm
07:05 PM 47.6°F8.7°C 34.5°F1.4°C 61% Calm Calm 6.9 mph11.1 kmh 30.19 in1022.4 mb 0.00 in0.0 mm 0.00 in/hr0.0 mm/hr 0.00 in0.0 mm
07:20 PM 46.8°F8.2°C 34.6°F1.4°C 63% Calm Calm 5.1 mph8.2 kmh 30.19 in1022.4 mb 0.00 in0.0 mm 0.00 in/hr0.0 mm/hr 0.00 in0.0 mm
07:35 PM 45.9°F7.7°C 34.6°F1.4°C 65% Calm Calm 3.6 mph5.8 kmh 30.19 in1022.4 mb 0.00 in0.0 mm 0.00 in/hr0.0 mm/hr 0.00 in0.0 mm
07:50 PM 45.6°F7.6°C 34.3°F1.3°C 65% Calm Calm 6.9 mph11.1 kmh 30.20 in1022.7 mb 0.00 in0.0 mm 0.00 in/hr0.0 mm/hr 0.00 in0.0 mm
08:05 PM 45.6°F7.6°C 34.7°F1.5°C 66% Calm Calm 3.6 mph5.8 kmh 30.21 in1023.0 mb 0.00 in0.0 mm 0.00 in/hr0.0 mm/hr 0.00 in0.0 mm
08:20 PM 45.4°F7.4°C 34.5°F1.4°C 66% Calm Calm 10.5 mph16.9 kmh 30.22 in1023.4 mb 0.00 in0.0 mm 0.00 in/hr0.0 mm/hr 0.00 in0.0 mm
08:35 PM 45.2°F7.3°C 34.3°F1.3°C 66% 3.6 mph WNW5.8 kmh WNW 12.3 mph19.8 kmh 30.22 in1023.4 mb 0.00 in0.0 mm 0.00 in/hr0.0 mm/hr 0.00 in0.0 mm
08:50 PM 46.1°F7.8°C 34.0°F1.1°C 63% 3.6 mph W5.8 kmh W 24.6 mph39.6 kmh 30.22 in1023.4 mb 0.00 in0.0 mm 0.00 in/hr0.0 mm/hr 0.00 in0.0 mm
09:05 PM 46.5°F8.1°C 33.4°F0.8°C 61% 6.9 mph NW11.1 kmh NW 24.6 mph39.6 kmh 30.22 in1023.4 mb 0.00 in0.0 mm 0.00 in/hr0.0 mm/hr 0.00 in0.0 mm
09:20 PM 46.8°F8.2°C 33.8°F1.0°C 61% 3.6 mph N5.8 kmh N 31.5 mph50.7 kmh 30.23 in1023.7 mb 0.00 in0.0 mm 0.00 in/hr0.0 mm/hr 0.00 in0.0 mm
09:35 PM 46.3°F7.9°C 33.7°F0.9°C 62% Calm Calm 24.6 mph39.6 kmh 30.23 in1023.7 mb 0.00 in0.0 mm 0.00 in/hr0.0 mm/hr 0.00 in0.0 mm
09:50 PM 45.6°F7.6°C 33.9°F1.1°C 64% 1.8 mph NW2.9 kmh NW 19.2 mph30.9 kmh 30.23 in1023.7 mb 0.00 in0.0 mm 0.00 in/hr0.0 mm/hr 0.00 in0.0 mm
10:05 PM 44.9°F7.2°C 34.0°F1.1°C 66% 5.1 mph NW8.2 kmh NW 22.8 mph36.7 kmh 30.24 in1024.0 mb 0.00 in0.0 mm 0.00 in/hr0.0 mm/hr 0.00 in0.0 mm
10:20 PM 44.3°F6.8°C 33.9°F1.1°C 67% 3.6 mph WNW5.8 kmh WNW 22.8 mph36.7 kmh 30.24 in1024.0 mb 0.00 in0.0 mm 0.00 in/hr0.0 mm/hr 0.00 in0.0 mm
10:35 PM 43.8°F6.6°C 33.7°F0.9°C 68% 3.6 mph WNW5.8 kmh WNW 19.2 mph30.9 kmh 30.24 in1024.0 mb 0.00 in0.0 mm 0.00 in/hr0.0 mm/hr 0.00 in0.0 mm
10:50 PM 43.6°F6.4°C 32.8°F0.4°C 66% 3.6 mph NW5.8 kmh NW 19.2 mph30.9 kmh 30.25 in1024.4 mb 0.00 in0.0 mm 0.00 in/hr0.0 mm/hr 0.00 in0.0 mm
11:05 PM 43.6°F6.4°C 32.8°F0.4°C 66% 6.9 mph NNW11.1 kmh NNW 19.2 mph30.9 kmh 30.24 in1024.0 mb 0.00 in0.0 mm 0.00 in/hr0.0 mm/hr 0.00 in0.0 mm
11:20 PM 43.1°F6.2°C 32.3°F0.2°C 66% 3.6 mph WNW5.8 kmh WNW 15.7 mph25.3 kmh 30.24 in1024.0 mb 0.00 in0.0 mm 0.00 in/hr0.0 mm/hr 0.00 in0.0 mm
11:35 PM 43.1°F6.2°C 32.7°F0.4°C 67% 5.1 mph NW8.2 kmh NW 19.2 mph30.9 kmh 30.25 in1024.4 mb 0.00 in0.0 mm 0.00 in/hr0.0 mm/hr 0.00 in0.0 mm
11:50 PM 42.7°F5.9°C 32.7°F0.4°C 68% 3.6 mph NW5.8 kmh NW 26.2 mph42.2 kmh 30.24 in1024.0 mb 0.00 in0.0 mm 0.00 in/hr0.0 mm/hr 0.00 in0.0 mm